Time;durP1;ratioP1;P1;durP2;ratioP2;P2;SDS_P1;SDS_P2;PMS_P1;PMS_P2;Temp;Humidity;BMP_temperature;BMP_pressure;BME280_temperature;BME280_humidity;BME280_pressure;Samples;Min_cycle;Max_cycle;Signal;HPM_P1;HPM_P2
2023/09/12 00:01:14;;;;;;;0.20;0.20;;;;;;;20.81;100.00;98665.59;5113897;28;20186;-56
2023/09/12 00:04:01;;;;;;;0.10;0.10;;;;;;;20.98;100.00;98650.22;5112324;28;20267;-56
2023/09/12 00:06:48;;;;;;;0.10;0.10;;;;;;;21.10;100.00;98654.19;5113838;28;20280;-56
2023/09/12 00:09:36;;;;;;;0.10;0.10;;;;;;;21.02;100.00;98659.59;5113597;28;20201;-56
2023/09/12 00:12:25;;;;;;;0.10;0.10;;;;;;;21.01;100.00;98666.84;5112507;28;20191;-56
2023/09/12 00:15:12;;;;;;;0.20;0.20;;;;;;;20.71;100.00;98671.19;5113612;28;20182;-56
2023/09/12 00:17:59;;;;;;;0.10;0.10;;;;;;;20.50;100.00;98669.09;5111576;28;20231;-56
2023/09/12 00:20:46;;;;;;;0.10;0.10;;;;;;;20.46;100.00;98672.28;5113486;28;20198;-56
2023/09/12 00:23:33;;;;;;;0.17;0.17;;;;;;;20.33;100.00;98672.81;5113511;28;20194;-55
2023/09/12 00:26:21;;;;;;;0.10;0.10;;;;;;;20.41;100.00;98666.56;5113180;28;20295;-56
2023/09/12 00:29:10;;;;;;;0.10;0.10;;;;;;;20.48;100.00;98667.59;5113336;28;20190;-56
2023/09/12 00:31:56;;;;;;;0.20;0.20;;;;;;;20.67;100.00;98674.44;5113492;28;20218;-56
2023/09/12 00:34:44;;;;;;;0.10;0.10;;;;;;;20.66;100.00;98672.75;5112067;28;20603;-56
2023/09/12 00:37:30;;;;;;;0.20;0.20;;;;;;;20.33;100.00;98670.13;5113293;28;20250;-56
2023/09/12 00:40:17;;;;;;;0.10;0.10;;;;;;;20.37;100.00;98679.53;5112385;28;20198;-56
2023/09/12 00:43:06;;;;;;;0.17;0.17;;;;;;;20.16;100.00;98677.38;5113480;28;20260;-56
2023/09/12 00:45:53;;;;;;;0.10;0.10;;;;;;;20.22;100.00;98681.25;5111950;28;20676;-56
2023/09/12 00:48:40;;;;;;;0.10;0.10;;;;;;;20.37;100.00;98679.53;5111975;28;20193;-56
2023/09/12 00:51:28;;;;;;;0.20;0.20;;;;;;;20.32;100.00;98681.06;5113335;28;20216;-56
2023/09/12 00:54:15;;;;;;;0.10;0.10;;;;;;;20.19;100.00;98679.75;5112162;28;20565;-56
2023/09/12 00:57:02;;;;;;;0.10;0.10;;;;;;;20.22;100.00;98686.63;5113212;28;20279;-56
2023/09/12 00:59:52;;;;;;;0.10;0.10;;;;;;;20.22;100.00;98676.72;5113106;28;20202;-56
2023/09/12 01:02:40;;;;;;;0.20;0.20;;;;;;;20.29;100.00;98676.88;5106998;28;20268;-56
2023/09/12 01:05:28;;;;;;;0.10;0.10;;;;;;;20.54;100.00;98673.09;5112807;28;20260;-56
2023/09/12 01:08:15;;;;;;;0.10;0.10;;;;;;;20.34;100.00;98679.03;5113121;28;20195;-55
2023/09/12 01:11:02;;;;;;;0.10;0.10;;;;;;;20.23;100.00;98675.69;5112879;28;20755;-56
2023/09/12 01:13:49;;;;;;;0.20;0.20;;;;;;;20.19;100.00;98674.38;5112044;28;20232;-56
2023/09/12 01:16:38;;;;;;;0.17;0.17;;;;;;;20.31;100.00;98672.16;5112959;28;20245;-55
2023/09/12 01:19:26;;;;;;;0.10;0.10;;;;;;;20.10;100.00;98677.25;5110501;28;20194;-56
2023/09/12 01:22:56;;;;;;;0.10;0.10;;;;;;;20.14;100.00;98679.41;5113140;28;20186;-56
2023/09/12 01:26:18;;;;;;;0.10;0.10;;;;;;;20.07;100.00;98682.94;5111743;28;20244;-56
2023/09/12 01:29:08;;;;;;;0.10;0.10;;;;;;;20.09;100.00;98679.09;5115348;28;20308;-56
2023/09/12 01:31:56;;;;;;;0.10;0.10;;;;;;;19.89;100.00;98675.94;5116592;28;20202;-56
2023/09/12 01:34:43;;;;;;;0.20;0.20;;;;;;;19.99;100.00;98684.66;5115199;28;20198;-56
2023/09/12 01:37:31;;;;;;;0.10;0.10;;;;;;;20.16;100.00;98679.22;5116524;28;20194;-56
2023/09/12 01:40:19;;;;;;;0.10;0.10;;;;;;;20.12;100.00;98680.59;5116364;28;20260;-56
2023/09/12 01:43:07;;;;;;;0.20;0.20;;;;;;;20.13;100.00;98674.22;5115528;28;20194;-56
2023/09/12 01:45:58;;;;;;;0.17;0.17;;;;;;;20.13;100.00;84139.91;5115315;28;20214;-56
2023/09/12 01:48:46;;;;;;;0.10;0.10;;;;;;;19.91;100.00;98683.81;5114926;28;20210;-56
2023/09/12 01:51:34;;;;;;;0.20;0.20;;;;;;;19.80;100.00;98681.47;5115347;28;20190;-56
2023/09/12 01:54:22;;;;;;;0.20;0.20;;;;;;;20.00;100.00;98678.25;5115418;28;20202;-56
2023/09/12 01:57:10;;;;;;;0.20;0.20;;;;;;;19.91;100.00;98678.44;5115262;28;20317;-56
2023/09/12 01:59:57;;;;;;;0.20;0.20;;;;;;;19.84;100.00;98667.53;5115212;28;20287;-56
2023/09/12 02:02:45;;;;;;;0.20;0.20;;;;;;;19.78;100.00;98667.34;5115072;28;20244;-56
2023/09/12 02:05:33;;;;;;;0.10;0.10;;;;;;;19.78;100.00;84100.41;5115765;28;20234;-56
2023/09/12 02:08:19;;;;;;;0.10;0.10;;;;;;;19.93;100.00;98666.50;5116088;28;20244;-56
2023/09/12 02:11:07;;;;;;;0.20;0.20;;;;;;;19.77;100.00;98671.88;5114999;28;20249;-56
2023/09/12 02:13:54;;;;;;;0.20;0.20;;;;;;;19.62;100.00;98666.34;5115863;28;20198;-56
2023/09/12 02:16:40;;;;;;;0.20;0.20;;;;;;;19.50;100.00;98662.31;5115796;28;20214;-56
2023/09/12 02:19:31;;;;;;;0.10;0.10;;;;;;;19.42;100.00;98663.13;5114506;28;20195;-56
2023/09/12 02:22:18;;;;;;;0.20;0.20;;;;;;;19.48;100.00;98660.75;5114794;28;20209;-56
2023/09/12 02:25:06;;;;;;;0.20;0.20;;;;;;;19.57;100.00;98667.84;5115639;28;20227;-55
2023/09/12 02:27:53;;;;;;;0.17;0.17;;;;;;;19.72;100.00;98661.66;5115704;28;20237;-56
2023/09/12 02:30:41;;;;;;;0.20;0.20;;;;;;;19.58;100.00;98661.47;5115637;28;20202;-56
2023/09/12 02:33:27;;;;;;;0.10;0.10;;;;;;;19.67;100.00;98671.22;5113213;28;20472;-56
2023/09/12 02:36:16;;;;;;;0.13;0.13;;;;;;;19.37;100.00;98661.94;5115557;28;20182;-55
2023/09/12 02:39:04;;;;;;;0.10;0.10;;;;;;;-144.59;100.00;98661.94;5114417;28;20262;-56
2023/09/12 02:41:51;;;;;;;0.10;0.10;;;;;;;19.07;100.00;98660.72;5114147;28;20195;-56
2023/09/12 02:44:38;;;;;;;0.20;0.20;;;;;;;19.27;100.00;98666.63;5115289;28;20304;-56
2023/09/12 02:47:25;;;;;;;0.10;0.10;;;;;;;19.12;100.00;98671.81;5115038;28;20337;-56
2023/09/12 02:50:11;;;;;;;0.10;0.10;;;;;;;19.09;100.00;98667.59;5113075;28;20198;-55
2023/09/12 02:53:00;;;;;;;0.20;0.20;;;;;;;18.91;100.00;98676.75;5115341;28;20209;-56
2023/09/12 02:55:47;;;;;;;0.17;0.17;;;;;;;18.62;100.00;98680.63;5115136;28;20185;-56
2023/09/12 02:58:34;;;;;;;0.10;0.10;;;;;;;18.55;100.00;98683.16;5115076;28;20201;-56
2023/09/12 03:01:22;;;;;;;0.20;0.20;;;;;;;18.64;100.00;98681.34;5113913;28;20241;-56
2023/09/12 03:04:09;;;;;;;0.20;0.20;;;;;;;18.69;100.00;98681.72;5112512;28;20269;-56
2023/09/12 03:06:55;;;;;;;0.20;0.20;;;;;;;19.02;100.00;98679.16;5114503;28;20214;-56
2023/09/12 03:09:44;;;;;;;0.10;0.10;;;;;;;18.91;100.00;98672.22;5113830;28;20194;-56
2023/09/12 03:12:31;;;;;;;0.10;0.10;;;;;;;18.83;100.00;98665.03;5114742;28;20694;-56
2023/09/12 03:15:18;;;;;;;0.10;0.10;;;;;;;18.82;100.00;98670.56;5114707;28;20190;-55
2023/09/12 03:18:06;;;;;;;0.10;0.10;;;;;;;18.85;100.00;98668.38;5112267;28;20721;-56
2023/09/12 03:20:53;;;;;;;0.10;0.10;;;;;;;18.91;100.00;98676.75;5114556;28;20669;-56
2023/09/12 03:23:40;;;;;;;0.10;0.10;;;;;;;18.72;100.00;98668.00;5113637;28;20313;-55
2023/09/12 03:26:29;;;;;;;0.20;0.20;;;;;;;18.64;100.00;98670.63;5113122;28;20218;-56
2023/09/12 03:29:16;;;;;;;0.20;0.20;;;;;;;18.71;100.00;98671.66;5114401;28;20194;-56
2023/09/12 03:32:04;;;;;;;0.20;0.20;;;;;;;18.91;100.00;98658.81;5114470;28;20190;-56
2023/09/12 03:34:51;;;;;;;0.10;0.10;;;;;;;19.09;100.00;98653.31;5111900;28;20190;-56
2023/09/12 03:37:40;;;;;;;0.10;0.10;;;;;;;18.92;100.00;98660.53;5113391;28;20676;-56
2023/09/12 03:40:26;;;;;;;0.20;0.20;;;;;;;18.88;100.00;98651.94;5113264;28;20259;-56
2023/09/12 03:43:14;;;;;;;0.10;0.10;;;;;;;18.94;100.00;98641.56;5112972;28;20193;-56
2023/09/12 03:46:01;;;;;;;0.20;0.20;;;;;;;18.74;100.00;98641.84;5113014;28;20225;-56
2023/09/12 03:48:48;;;;;;;0.10;0.10;;;;;;;-144.59;100.00;126913.34;5111778;28;20225;-56
2023/09/12 03:51:37;;;;;;;0.10;0.10;;;;;;;18.34;100.00;98650.53;5113865;28;20673;-56
2023/09/12 03:54:25;;;;;;;0.10;0.10;;;;;;;18.27;100.00;98649.47;5113009;28;20200;-56
2023/09/12 03:57:12;;;;;;;0.20;0.20;;;;;;;18.39;100.00;98644.69;5112932;28;20212;-56
2023/09/12 04:00:04;;;;;;;0.10;0.10;;;;;;;18.53;100.00;98646.78;5113736;28;20304;-56
2023/09/12 04:02:58;;;;;;;0.10;0.10;;;;;;;18.61;100.00;98654.81;5112327;28;20190;-56
2023/09/12 04:05:47;;;;;;;0.20;0.20;;;;;;;18.70;100.00;98651.19;5112466;28;20252;-56
2023/09/12 04:08:34;;;;;;;0.13;0.13;;;;;;;18.75;100.00;98648.88;5112738;28;20186;-56
2023/09/12 04:11:21;;;;;;;0.20;0.20;;;;;;;18.92;100.00;98652.47;5113680;28;20317;-56
2023/09/12 04:14:25;;;;;;;0.20;0.20;;;;;;;19.14;100.00;98651.84;5113620;28;20198;-56
2023/09/12 04:17:14;;;;;;;0.10;0.10;;;;;;;19.06;100.00;98646.44;5113605;28;20189;-56
2023/09/12 04:20:01;;;;;;;0.13;0.13;;;;;;;18.83;100.00;98642.72;5112230;28;20302;-55
2023/09/12 04:22:48;;;;;;;0.10;0.10;;;;;;;19.01;100.00;98647.94;5113449;28;20198;-56
2023/09/12 04:25:35;;;;;;;0.10;0.10;;;;;;;19.16;100.00;98654.34;5112509;28;20198;-56
2023/09/12 04:28:22;;;;;;;0.20;0.20;;;;;;;19.25;100.00;98650.69;5112247;28;20388;-56
2023/09/12 04:31:09;;;;;;;0.20;0.20;;;;;;;19.36;100.00;98636.09;5112332;28;20217;-56
2023/09/12 04:33:57;;;;;;;0.10;0.10;;;;;;;19.35;100.00;98642.47;5111058;28;20197;-56
2023/09/12 04:36:44;;;;;;;0.10;0.10;;;;;;;19.47;100.00;98649.19;5112380;28;20244;-56
2023/09/12 04:39:31;;;;;;;0.10;0.10;;;;;;;19.12;100.00;98655.69;5112224;28;20193;-56
2023/09/12 04:42:18;;;;;;;0.20;0.20;;;;;;;-144.59;100.00;74176.84;5113397;28;20190;-56
2023/09/12 04:45:06;;;;;;;0.10;0.10;;;;;;;19.13;100.00;98652.84;5112248;28;20193;-56
2023/09/12 04:47:54;;;;;;;0.13;0.13;;;;;;;19.15;100.00;98656.19;5110609;28;20210;-56
2023/09/12 04:50:43;;;;;;;0.10;0.10;;;;;;;19.15;100.00;98663.41;5112332;28;20198;-56
2023/09/12 04:53:34;;;;;;;0.10;0.10;;;;;;;19.05;100.00;98662.72;5113332;28;20189;-56
2023/09/12 04:56:24;;;;;;;0.10;0.10;;;;;;;18.96;100.00;98669.91;5112013;28;20202;-56
2023/09/12 04:59:11;;;;;;;0.13;0.13;;;;;;;19.43;100.00;98667.50;5112146;28;20371;-56
2023/09/12 05:01:58;;;;;;;0.10;0.10;;;;;;;19.25;100.00;98680.22;5113137;28;20227;-56
2023/09/12 05:04:45;;;;;;;0.20;0.20;;;;;;;19.18;100.00;98679.19;5115126;28;20252;-56
2023/09/12 05:07:33;;;;;;;0.10;0.10;;;;;;;19.44;100.00;98665.63;5116144;28;20248;-56
2023/09/12 05:10:20;;;;;;;0.10;0.10;;;;;;;19.58;100.00;98666.84;5117234;28;20676;-56
2023/09/12 05:13:07;;;;;;;0.10;0.10;;;;;;;19.62;100.00;98666.34;5115932;28;20705;-56
2023/09/12 05:15:54;;;;;;;0.20;0.20;;;;;;;19.59;100.00;98674.75;5117144;28;20261;-56
2023/09/12 05:18:41;;;;;;;0.20;0.20;;;;;;;19.48;100.00;98679.56;5114627;28;20190;-56
2023/09/12 05:21:28;;;;;;;0.10;0.10;;;;;;;19.56;100.00;98676.91;5116500;28;20676;-56
2023/09/12 05:24:17;;;;;;;0.10;0.10;;;;;;;19.47;100.00;98685.94;5116817;28;20680;-55
2023/09/12 05:27:05;;;;;;;0.10;0.10;;;;;;;19.43;100.00;98688.97;5116729;28;20209;-56
2023/09/12 05:29:52;;;;;;;0.10;0.10;;;;;;;19.29;100.00;98686.94;5116608;28;20546;-56
2023/09/12 05:32:39;;;;;;;0.20;0.20;;;;;;;19.34;100.00;98695.34;5116784;28;20202;-56
2023/09/12 05:35:26;;;;;;;0.10;0.10;;;;;;;19.36;100.00;98696.00;5116743;28;20198;-56
2023/09/12 05:38:13;;;;;;;0.20;0.20;;;;;;;19.48;100.00;98691.16;5115512;28;20211;-56
2023/09/12 05:41:01;;;;;;;0.13;0.13;;;;;;;19.71;100.00;98692.22;5116578;28;20236;-55
2023/09/12 05:43:49;;;;;;;0.10;0.10;;;;;;;19.88;100.00;98692.19;5115565;28;20248;-56
2023/09/12 05:46:36;;;;;;;0.10;0.10;;;;;;;19.84;100.00;98686.34;5115346;28;20201;-56
2023/09/12 05:49:23;;;;;;;0.10;0.10;;;;;;;19.78;100.00;98684.31;5114099;28;20190;-56
2023/09/12 05:52:10;;;;;;;0.10;0.10;;;;;;;19.77;100.00;98671.88;5115361;28;20194;-56
2023/09/12 05:54:57;;;;;;;0.10;0.10;;;;;;;19.89;100.00;98669.72;5116281;28;20206;-56
2023/09/12 05:57:47;;;;;;;0.10;0.10;;;;;;;19.96;100.00;98681.44;5115232;28;20633;-56
2023/09/12 06:00:34;;;;;;;0.10;0.10;;;;;;;76.78;100.00;98681.44;5116367;28;20198;-56
2023/09/12 06:03:22;;;;;;;0.10;0.10;;;;;;;19.75;100.00;98676.59;5114377;28;20205;-56
2023/09/12 06:06:09;;;;;;;0.10;0.10;;;;;;;19.71;100.00;98676.09;5115284;28;20225;-57
2023/09/12 06:08:58;;;;;;;0.10;0.10;;;;;;;19.86;100.00;98678.94;5115783;28;20218;-56
2023/09/12 06:11:45;;;;;;;0.20;0.20;;;;;;;19.85;100.00;98679.94;5115957;28;20189;-56
2023/09/12 06:14:33;;;;;;;0.13;0.13;;;;;;;19.85;100.00;98682.63;5114895;28;20189;-56
2023/09/12 06:17:20;;;;;;;0.20;0.20;;;;;;;19.72;100.00;98687.69;5115795;28;20665;-56
2023/09/12 06:20:08;;;;;;;0.10;0.10;;;;;;;20.12;100.00;98686.81;5115086;28;20304;-56
2023/09/12 06:22:54;;;;;;;0.10;0.10;;;;;;;20.46;100.00;98683.94;5114817;28;20198;-56
2023/09/12 06:25:41;;;;;;;0.20;0.20;;;;;;;20.53;100.00;156888.53;5115801;28;20186;-56
2023/09/12 06:28:29;;;;;;;0.10;0.10;;;;;;;20.72;100.00;98686.34;5115473;28;20218;-56
2023/09/12 06:31:18;;;;;;;0.10;0.10;;;;;;;20.90;100.00;98680.72;5115666;28;20202;-56
2023/09/12 06:34:05;;;;;;;0.13;0.13;;;;;;;20.86;100.00;98679.41;5114243;28;20236;-56
2023/09/12 06:36:51;;;;;;;0.10;0.10;;;;;;;20.78;100.00;98685.66;5115556;28;20209;-56
2023/09/12 06:39:38;;;;;;;0.10;0.10;;;;;;;21.10;100.00;98684.63;5115385;28;20264;-56
2023/09/12 06:42:25;;;;;;;0.10;0.10;;;;;;;21.30;100.00;98676.13;5115392;28;20747;-56
2023/09/12 06:45:12;;;;;;;0.10;0.10;;;;;;;21.30;100.00;98679.66;5115366;28;20263;-56
2023/09/12 06:48:01;;;;;;;0.10;0.10;;;;;;;21.45;100.00;98677.06;5113921;28;20417;-56
2023/09/12 06:50:47;;;;;;;0.10;0.10;;;;;;;21.38;100.00;98674.22;5115282;28;20187;-56
2023/09/12 06:53:39;;;;;;;0.10;0.10;;;;;;;21.66;100.00;98668.31;5114308;28;20217;-56
2023/09/12 06:56:27;;;;;;;0.10;0.10;;;;;;;21.77;100.00;98670.56;5115118;28;20202;-56
2023/09/12 06:59:13;;;;;;;0.10;0.10;;;;;;;22.00;100.00;98675.91;5114926;28;20198;-56
2023/09/12 07:02:00;;;;;;;0.10;0.10;;;;;;;22.05;100.00;98681.63;5115107;28;20238;-57
2023/09/12 07:04:49;;;;;;;0.10;0.10;;;;;;;22.12;100.00;98679.06;5113518;28;20295;-57
2023/09/12 07:07:35;;;;;;;0.10;0.10;;;;;;;22.62;100.00;98672.09;5114695;28;20236;-56
2023/09/12 07:10:23;;;;;;;0.10;0.10;;;;;;;-144.59;100.00;73698.81;5114853;28;20189;-56
2023/09/12 07:13:11;;;;;;;0.10;0.10;;;;;;;23.31;100.00;98668.00;5114938;28;20202;-56
2023/09/12 07:15:58;;;;;;;0.10;0.10;;;;;;;23.30;100.00;98663.63;5114579;28;20558;-56
2023/09/12 07:18:45;;;;;;;0.10;0.10;;;;;;;23.18;100.00;98658.91;5113267;28;20190;-56
2023/09/12 07:21:33;;;;;;;0.10;0.10;;;;;;;22.94;100.00;98658.22;5114570;28;20194;-57
2023/09/12 07:24:20;;;;;;;0.10;0.10;;;;;;;23.04;100.00;98657.91;5114435;28;20281;-56
2023/09/12 07:27:07;;;;;;;0.10;0.10;;;;;;;22.86;100.00;98661.00;5114297;28;20206;-56
2023/09/12 07:29:54;;;;;;;0.10;0.10;;;;;;;22.94;100.00;98652.81;5114123;28;20703;-56
2023/09/12 07:32:41;;;;;;;0.10;0.10;;;;;;;23.05;100.00;98655.00;5113668;28;20232;-57
2023/09/12 07:35:28;;;;;;;0.10;0.10;;;;;;;22.93;100.00;98664.63;5114354;28;20194;-57
2023/09/12 07:38:16;;;;;;;0.10;0.10;;;;;;;22.98;100.00;98659.53;5114254;28;20237;-56
2023/09/12 07:41:03;;;;;;;0.10;0.10;;;;;;;23.07;100.00;98662.94;5114128;28;20300;-57
2023/09/12 07:43:50;;;;;;;0.10;0.10;;;;;;;23.57;100.00;98666.59;5114220;28;20194;-57
2023/09/12 07:46:37;;;;;;;0.10;0.10;;;;;;;23.76;100.00;98665.13;5114100;28;20268;-57
2023/09/12 07:49:26;;;;;;;0.10;0.10;;;;;;;24.03;100.00;98672.44;5112456;28;20217;-57
2023/09/12 07:52:12;;;;;;;0.10;0.10;;;;;;;23.89;100.00;98671.47;5114141;28;20197;-56
2023/09/12 07:55:02;;;;;;;0.10;0.10;;;;;;;24.00;100.00;98664.69;5114007;28;20307;-57
2023/09/12 07:57:49;;;;;;;0.10;0.10;;;;;;;23.82;100.00;98654.34;5113787;28;20198;-56
2023/09/12 08:00:37;;;;;;;0.10;0.10;;;;;;;23.98;100.00;98664.91;5113850;28;20198;-56
2023/09/12 08:03:24;;;;;;;0.10;0.10;;;;;;;24.03;100.00;98663.47;5112613;28;20202;-56
2023/09/12 08:06:15;;;;;;;0.10;0.10;;;;;;;24.15;100.00;98670.03;5112983;28;20234;-57
2023/09/12 08:09:03;;;;;;;0.10;0.10;;;;;;;24.43;100.00;98672.75;5112621;28;20214;-57
2023/09/12 08:11:51;;;;;;;0.10;0.10;;;;;;;24.84;100.00;98676.31;5113680;28;20194;-57
2023/09/12 08:14:38;;;;;;;0.10;0.10;;;;;;;24.82;100.00;98672.97;5113533;28;20256;-57
2023/09/12 08:17:25;;;;;;;0.10;0.10;;;;;;;24.50;100.00;98679.03;5113701;28;20260;-57
2023/09/12 08:20:12;;;;;;;0.10;0.10;;;;;;;25.34;100.00;98673.38;5113796;28;20334;-57
2023/09/12 08:22:59;;;;;;;0.10;0.10;;;;;;;25.71;100.00;98665.78;5113519;28;20185;-56
2023/09/12 08:25:46;;;;;;;0.10;0.10;;;;;;;25.22;100.00;98656.88;5113438;28;20252;-57
2023/09/12 08:28:34;;;;;;;0.10;0.10;;;;;;;25.47;100.00;98659.84;5113546;28;20217;-57
2023/09/12 08:31:21;;;;;;;0.00;0.00;;;;;;;25.98;100.00;98659.31;5113371;28;20221;-57
2023/09/12 08:34:09;;;;;;;0.10;0.10;;;;;;;26.06;100.00;98666.41;5112172;28;20304;-57
2023/09/12 08:36:56;;;;;;;0.10;0.10;;;;;;;25.64;100.00;98663.84;5113443;28;20203;-57
2023/09/12 08:39:45;;;;;;;0.10;0.10;;;;;;;26.20;100.00;98668.06;5112978;28;20312;-57
2023/09/12 08:42:33;;;;;;;0.10;0.10;;;;;;;26.13;100.00;98668.06;5113310;28;20284;-57
2023/09/12 08:45:21;;;;;;;0.00;0.00;;;;;;;26.70;100.00;98669.22;5113396;28;20198;-57
2023/09/12 08:48:08;;;;;;;0.10;0.10;;;;;;;27.01;100.00;98671.19;5112084;28;20194;-57
2023/09/12 08:50:56;;;;;;;0.00;0.00;;;;;;;26.97;100.00;98677.28;5112140;28;20186;-57
2023/09/12 08:53:43;;;;;;;0.10;0.10;;;;;;;27.32;100.00;98673.19;5113266;28;20189;-57
2023/09/12 08:56:33;;;;;;;0.03;0.03;;;;;;;27.63;100.00;98666.09;5113336;28;20194;-57
2023/09/12 08:59:20;;;;;;;0.10;0.10;;;;;;;27.51;100.00;98670.56;5113138;28;20210;-57
2023/09/12 09:02:10;;;;;;;0.10;0.10;;;;;;;27.74;100.00;98670.03;5113110;28;20189;-57
2023/09/12 09:04:58;;;;;;;0.00;0.00;;;;;;;28.09;100.00;98671.22;5111537;28;20221;-57
2023/09/12 09:07:45;;;;;;;0.00;0.00;;;;;;;28.14;100.00;98671.34;5113078;28;20670;-57
2023/09/12 09:10:32;;;;;;;0.10;0.10;;;;;;;27.85;100.00;98661.13;5112850;28;20325;-57
2023/09/12 09:13:36;;;;;;;0.10;0.10;;;;;;;28.29;100.00;98665.59;5113092;28;20695;-57
2023/09/12 09:16:24;;;;;;;0.10;0.10;;;;;;;28.24;100.00;98662.69;5113119;28;20259;-57
2023/09/12 09:19:12;;;;;;;0.00;0.00;;;;;;;28.51;99.39;98657.84;5111593;28;20279;-57
2023/09/12 09:22:06;;;;;;;0.10;0.10;;;;;;;28.89;95.78;98654.91;5113072;28;20206;-57
2023/09/12 09:25:11;;;;;;;0.10;0.10;;;;;;;29.10;94.83;98653.59;5112983;28;20366;-57
2023/09/12 09:27:58;;;;;;;0.00;0.00;;;;;;;29.20;91.92;98653.88;5113048;28;20303;-57
2023/09/12 09:30:46;;;;;;;0.10;0.10;;;;;;;29.41;91.54;98641.59;5112660;28;20268;-57
2023/09/12 09:33:36;;;;;;;0.00;0.00;;;;;;;29.49;85.66;98641.31;5111656;28;20195;-57
2023/09/12 09:36:24;;;;;;;0.00;0.00;;;;;;;29.74;84.29;98640.31;5112886;28;20346;-57
2023/09/12 09:39:13;;;;;;;0.10;0.10;;;;;;;29.97;79.81;98634.03;5112842;28;20187;-57
2023/09/12 09:42:00;;;;;;;0.10;0.10;;;;;;;29.77;84.70;98637.09;5112734;28;20665;-57
2023/09/12 09:44:47;;;;;;;0.10;0.10;;;;;;;30.43;82.87;98635.97;5112746;28;20292;-57
2023/09/12 09:47:34;;;;;;;0.00;0.00;;;;;;;30.52;79.88;98640.00;5112818;28;20248;-57
2023/09/12 09:50:21;;;;;;;0.10;0.10;;;;;;;30.28;73.52;98641.09;5115069;28;20221;-57
2023/09/12 09:53:10;;;;;;;0.10;0.10;;;;;;;30.72;69.38;98647.84;5116367;28;20206;-57
2023/09/12 09:56:09;;;;;;;0.00;0.00;;;;;;;30.69;67.80;98646.44;5116511;28;20258;-57
2023/09/12 09:58:57;;;;;;;0.00;0.00;;;;;;;31.00;66.25;98647.06;5116165;28;20314;-57
2023/09/12 10:01:46;;;;;;;0.00;0.00;;;;;;;30.90;68.57;98647.69;5116174;28;20202;-57
2023/09/12 10:04:35;;;;;;;0.00;0.00;;;;;;;31.46;65.84;98648.81;5114762;28;20198;-57
2023/09/12 10:07:26;;;;;;;0.10;0.10;;;;;;;31.78;61.42;98643.66;5116108;28;20186;-57
2023/09/12 10:10:15;;;;;;;0.00;0.00;;;;;;;31.93;60.84;98650.47;5115843;28;20711;-57
2023/09/12 10:13:04;;;;;;;0.00;0.00;;;;;;;32.34;62.05;98644.59;5116043;28;20281;-57
2023/09/12 10:15:52;;;;;;;0.00;0.00;;;;;;;34.66;49.38;98645.63;5115042;28;20206;-57
2023/09/12 10:18:49;;;;;;;0.10;0.10;;;;;;;35.95;46.12;98649.34;5114569;28;20309;-57
2023/09/12 10:21:36;;;;;;;0.00;0.00;;;;;;;38.22;40.19;98647.00;5114866;28;20274;-57
2023/09/12 10:24:24;;;;;;;0.00;0.00;;;;;;;38.03;39.54;98647.72;5115946;28;20190;-55
2023/09/12 10:27:14;;;;;;;0.00;0.00;;;;;;;38.79;38.70;98642.53;5115695;28;20201;-57
2023/09/12 10:30:04;;;;;;;0.00;0.00;;;;;;;40.61;34.24;98638.91;5115520;28;20217;-55
2023/09/12 10:32:52;;;;;;;0.00;0.00;;;;;;;42.37;31.93;98641.03;5114407;28;20507;-55
2023/09/12 10:35:40;;;;;;;0.00;0.00;;;;;;;41.13;33.61;98630.38;5115704;28;20268;-55
2023/09/12 10:38:29;;;;;;;0.00;0.00;;;;;;;41.26;33.34;98632.28;5115477;28;20194;-55
2023/09/12 10:41:17;;;;;;;0.00;0.00;;;;;;;42.57;31.52;98626.59;5115432;28;20195;-55
2023/09/12 10:44:10;;;;;;;0.00;0.00;;;;;;;42.27;30.78;98623.47;5115337;28;20264;-55
2023/09/12 10:46:58;;;;;;;0.00;0.00;;;;;;;40.77;33.93;98624.72;5115316;28;20194;-56
2023/09/12 10:49:45;;;;;;;0.00;0.00;;;;;;;42.27;32.34;98622.63;5113544;28;20340;-55
2023/09/12 10:52:35;;;;;;;0.00;0.00;;;;;;;42.70;31.78;98619.25;5115038;28;20328;-56
2023/09/12 10:55:22;;;;;;;0.00;0.00;;;;;;;42.72;30.94;98617.78;5115164;28;20763;-55
2023/09/12 10:58:11;;;;;;;0.00;0.00;;;;;;;42.16;31.51;98608.16;5115355;28;20267;-56
2023/09/12 11:01:25;;;;;;;0.00;0.00;;;;;;;41.75;31.97;98613.94;5114453;28;20194;-56
2023/09/12 11:04:34;;;;;;;0.00;0.00;;;;;;;42.79;30.77;98611.75;5112796;28;20665;-56
2023/09/12 11:07:46;;;;;;;0.00;0.00;;;;;;;43.22;30.44;98613.81;5114710;28;20193;-56
2023/09/12 11:10:33;;;;;;;0.00;0.00;;;;;;;45.24;26.77;98610.69;5114738;28;20328;-56
2023/09/12 11:13:19;;;;;;;0.00;0.00;;;;;;;45.21;26.72;98611.38;5114931;28;20189;-56
2023/09/12 11:16:14;;;;;;;0.00;0.00;;;;;;;44.72;26.14;98608.19;5114675;28;20189;-56
2023/09/12 11:19:18;;;;;;;0.00;0.00;;;;;;;42.08;28.39;98622.00;5113195;28;20194;-56
2023/09/12 11:22:22;;;;;;;0.00;0.00;;;;;;;43.13;27.78;98611.84;5114623;28;20186;-56
2023/09/12 11:25:22;;;;;;;0.00;0.00;;;;;;;43.10;28.07;98611.66;5114679;28;20255;-56
2023/09/12 11:28:09;;;;;;;0.00;0.00;;;;;;;41.46;29.09;98619.91;5114614;28;20280;-56
2023/09/12 11:30:58;;;;;;;0.00;0.00;;;;;;;42.76;28.05;98607.66;5114373;28;20303;-56
2023/09/12 11:33:45;;;;;;;0.00;0.00;;;;;;;42.51;28.80;98594.41;5113097;28;20208;-56
2023/09/12 11:36:41;;;;;;;0.00;0.00;;;;;;;45.07;25.83;98594.00;5114456;28;20189;-56
2023/09/12 11:39:31;;;;;;;0.00;0.00;;;;;;;44.66;25.68;98600.34;5114330;28;20193;-56
2023/09/12 11:42:18;;;;;;;0.00;0.00;;;;;;;45.22;25.06;98592.59;5114296;28;20227;-56
2023/09/12 11:45:09;;;;;;;0.00;0.00;;;;;;;43.36;25.91;98595.00;5114164;28;20217;-56
2023/09/12 11:47:56;;;;;;;0.00;0.00;;;;;;;42.39;28.85;98591.41;5112963;28;20198;-56
2023/09/12 11:50:43;;;;;;;0.00;0.00;;;;;;;42.12;28.84;98596.03;5114004;28;20213;-56
2023/09/12 11:53:35;;;;;;;0.00;0.00;;;;;;;43.62;28.12;98592.19;5113942;28;20664;-56
2023/09/12 11:56:22;;;;;;;0.00;0.00;;;;;;;41.43;30.27;98585.22;5114041;28;20208;-56
2023/09/12 11:59:09;;;;;;;0.00;0.00;;;;;;;44.50;27.35;98580.50;5114106;28;20204;-56
2023/09/12 12:02:00;;;;;;;0.00;0.00;;;;;;;44.84;26.84;98579.50;5113823;28;20193;-56
2023/09/12 12:04:47;;;;;;;0.00;0.00;;;;;;;46.02;25.18;98587.63;5111918;28;20229;-56
2023/09/12 12:07:34;;;;;;;0.00;0.00;;;;;;;44.90;25.95;98588.53;5113386;28;20629;-56
2023/09/12 12:10:25;;;;;;;0.00;0.00;;;;;;;44.25;27.49;98587.84;5113491;28;20220;-56
2023/09/12 12:13:13;;;;;;;0.00;0.00;;;;;;;44.18;27.09;98590.31;5112858;28;20193;-56
2023/09/12 12:15:59;;;;;;;0.00;0.00;;;;;;;43.99;27.25;98588.69;5113774;28;20320;-56
2023/09/12 12:18:46;;;;;;;0.00;0.00;;;;;;;44.45;26.13;98589.88;5112204;28;20676;-56
2023/09/12 12:21:33;;;;;;;0.00;0.00;;;;;;;43.05;27.97;98584.78;5113631;28;20185;-56
2023/09/12 12:24:23;;;;;;;0.00;0.00;;;;;;;45.23;25.82;98583.88;5113655;28;20205;-56
2023/09/12 12:27:12;;;;;;;0.00;0.00;;;;;;;46.95;24.25;98583.19;5113627;28;20517;-56
2023/09/12 12:29:58;;;;;;;0.00;0.00;;;;;;;47.01;24.08;98592.19;5113563;28;20215;-55
2023/09/12 12:32:47;;;;;;;0.00;0.00;;;;;;;44.38;27.19;98583.19;5112228;28;20202;-56
2023/09/12 12:35:36;;;;;;;0.00;0.00;;;;;;;42.73;28.81;98576.81;5113418;28;20202;-56
2023/09/12 12:38:39;;;;;;;0.00;0.00;;;;;;;42.51;29.14;98583.28;5113481;28;20193;-56
2023/09/12 12:41:45;;;;;;;0.00;0.00;;;;;;;42.64;28.59;98596.28;5113345;28;20181;-56
2023/09/12 12:44:40;;;;;;;0.00;0.00;;;;;;;43.56;27.91;98582.34;5113344;28;20676;-56
2023/09/12 12:47:28;;;;;;;0.00;0.00;;;;;;;42.76;28.29;98577.00;5113413;28;20194;-56
2023/09/12 12:50:17;;;;;;;0.00;0.00;;;;;;;40.79;29.34;98575.22;5113179;28;20252;-56
2023/09/12 12:53:04;;;;;;;0.00;0.00;;;;;;;39.37;31.54;98573.84;5113231;28;20193;-55
2023/09/12 12:55:51;;;;;;;0.00;0.00;;;;;;;37.51;34.62;98570.94;5113286;28;20193;-56
2023/09/12 12:58:38;;;;;;;0.00;0.00;;;;;;;35.36;38.39;98569.06;5113195;28;20688;-55
2023/09/12 13:01:26;;;;;;;0.00;0.00;;;;;;;35.24;39.11;98561.06;5112863;28;20268;-57
2023/09/12 13:04:13;;;;;;;0.00;0.00;;;;;;;34.20;41.57;98573.00;5111831;28;20688;-55
2023/09/12 13:07:00;;;;;;;0.05;0.05;;;;;;;34.31;42.46;98569.19;5113029;28;20198;-55